Startpagina
METAR-TAF:

METAR-TAF

Vliegvelden :

Nassau, Bahama's

Lynden Pindling International Airport

breedte: 25-03N, lengte: 077-28W, hoogte: 3 m

Actueel weer

Dit bericht is 46 minuten geleden gemaakt, om 06:00 UTC
Weinig wind
Temperatuur 29°C
Vochtigheid 74%
Druk 1016 hPa
Zicht 10 km of meer
Verspreide wolken op 1800 ft, Stapelwolken.

METAR: MYNN 280600Z 00000KT 9999 SCT018TCU 29/24 A3000 RMK TCU/E

Tijdstip: 02:46 (06:46 UTC)

Verwachting

Dit bericht is 2 uur en het 46 minuten geleden gemaakt, om 04:00 UTC
Verwachting geldig van 28 om 06 UTC tot 29 om 06 UTC
Wind 4 kt uit het oosten
Zicht 10 km of meer
Weinig wolken op 1500 ft, Cumulonimbus.
Verspreide wolken op 1800 ft
onweer in de omgeving

TAF: MYNN 280400Z 2806/2906 09004KT 9999 VCTS FEW015CB SCT018

Waarnemingen en weersverwachtingen van meer dan 4000 vliegvelden (METAR en TAF).

De beschikbare stations zijn de gele en rode punten op de kaart.

Ga met uw muis naar het station om de naam te zien.

Klik dan om waarnemingen en weersverwachtingen te zien.

kaart wijzigen: klik op de groene knoppen met een zwart kruis om in te zoomen, op de groene knop met een streepje om uit te zoomen of op de groene pijlen voor aangrenzende kaarten.


METAR-TAF: